sensor_id;sensor_type;location;lat;lon;timestamp;noise_LAeq;noise_LA_min;noise_LA_max;noise_LA01;noise_LA95
66888;Laerm;53798;51.680;5.976;2022-08-07T00:01:17;56.97;31.82;75.45;;
66888;Laerm;53798;51.680;5.976;2022-08-07T00:04:06;35.80;32.46;43.43;;
66888;Laerm;53798;51.680;5.976;2022-08-07T00:06:38;35.17;31.83;47.56;;
66888;Laerm;53798;51.680;5.976;2022-08-07T00:09:20;34.49;31.49;42.44;;
66888;Laerm;53798;51.680;5.976;2022-08-07T00:11:49;34.69;31.85;39.03;;
66888;Laerm;53798;51.680;5.976;2022-08-07T00:14:26;34.35;31.67;38.25;;
66888;Laerm;53798;51.680;5.976;2022-08-07T00:17:00;35.13;31.25;44.70;;
66888;Laerm;53798;51.680;5.976;2022-08-07T00:19:30;35.40;31.76;41.46;;
66888;Laerm;53798;51.680;5.976;2022-08-07T00:22:18;34.24;31.44;41.90;;
66888;Laerm;53798;51.680;5.976;2022-08-07T00:25:05;44.47;32.56;63.81;;
66888;Laerm;53798;51.680;5.976;2022-08-07T00:27:41;59.90;32.01;75.87;;
66888;Laerm;53798;51.680;5.976;2022-08-07T00:30:23;54.65;32.49;72.76;;
66888;Laerm;53798;51.680;5.976;2022-08-07T00:32:56;34.42;31.83;41.18;;
66888;Laerm;53798;51.680;5.976;2022-08-07T00:35:25;36.02;31.69;42.98;;
66888;Laerm;53798;51.680;5.976;2022-08-07T00:37:59;34.75;31.63;43.04;;
66888;Laerm;53798;51.680;5.976;2022-08-07T00:40:28;41.62;32.55;68.44;;
66888;Laerm;53798;51.680;5.976;2022-08-07T00:43:11;35.93;32.22;45.61;;
66888;Laerm;53798;51.680;5.976;2022-08-07T00:46:00;37.59;33.74;43.36;;
66888;Laerm;53798;51.680;5.976;2022-08-07T00:48:30;37.62;33.80;47.96;;
66888;Laerm;53798;51.680;5.976;2022-08-07T00:50:59;37.70;34.81;45.73;;
66888;Laerm;53798;51.680;5.976;2022-08-07T00:53:27;35.86;32.84;41.28;;
66888;Laerm;53798;51.680;5.976;2022-08-07T00:56:14;35.45;32.44;41.56;;
66888;Laerm;53798;51.680;5.976;2022-08-07T00:58:42;41.72;32.60;58.17;;
66888;Laerm;53798;51.680;5.976;2022-08-07T01:01:17;61.46;32.82;78.72;;
66888;Laerm;53798;51.680;5.976;2022-08-07T01:03:48;39.55;33.68;53.18;;
66888;Laerm;53798;51.680;5.976;2022-08-07T01:06:27;38.80;32.95;55.84;;
66888;Laerm;53798;51.680;5.976;2022-08-07T01:08:57;37.89;34.03;47.20;;
66888;Laerm;53798;51.680;5.976;2022-08-07T01:11:29;37.28;32.31;54.45;;
66888;Laerm;53798;51.680;5.976;2022-08-07T01:14:22;35.23;32.34;42.42;;
66888;Laerm;53798;51.680;5.976;2022-08-07T01:16:57;35.18;32.05;42.97;;
66888;Laerm;53798;51.680;5.976;2022-08-07T01:19:29;37.02;32.76;49.41;;
66888;Laerm;53798;51.680;5.976;2022-08-07T01:22:00;35.34;31.90;41.51;;
66888;Laerm;53798;51.680;5.976;2022-08-07T01:24:34;34.82;32.25;44.96;;
66888;Laerm;53798;51.680;5.976;2022-08-07T01:27:03;40.52;32.38;60.90;;
66888;Laerm;53798;51.680;5.976;2022-08-07T01:29:32;37.17;32.79;45.84;;
66888;Laerm;53798;51.680;5.976;2022-08-07T01:32:02;63.97;33.94;82.00;;
66888;Laerm;53798;51.680;5.976;2022-08-07T01:34:38;35.36;32.52;40.82;;
66888;Laerm;53798;51.680;5.976;2022-08-07T01:37:14;35.15;32.44;39.28;;
66888;Laerm;53798;51.680;5.976;2022-08-07T01:39:46;35.71;32.60;41.83;;
66888;Laerm;53798;51.680;5.976;2022-08-07T01:42:24;36.50;32.86;44.21;;
66888;Laerm;53798;51.680;5.976;2022-08-07T01:45:09;36.51;32.51;60.70;;
66888;Laerm;53798;51.680;5.976;2022-08-07T01:47:52;55.77;32.32;73.41;;
66888;Laerm;53798;51.680;5.976;2022-08-07T01:50:46;37.58;33.33;44.31;;
66888;Laerm;53798;51.680;5.976;2022-08-07T01:53:20;37.13;32.21;45.05;;
66888;Laerm;53798;51.680;5.976;2022-08-07T01:56:42;36.12;31.31;48.34;;
66888;Laerm;53798;51.680;5.976;2022-08-07T01:59:28;58.06;31.93;77.82;;
66888;Laerm;53798;51.680;5.976;2022-08-07T02:02:05;34.82;31.30;40.24;;
66888;Laerm;53798;51.680;5.976;2022-08-07T02:04:57;57.33;32.46;75.60;;
66888;Laerm;53798;51.680;5.976;2022-08-07T02:07:35;36.77;32.16;43.53;;
66888;Laerm;53798;51.680;5.976;2022-08-07T02:10:25;41.12;32.09;66.81;;
66888;Laerm;53798;51.680;5.976;2022-08-07T02:12:58;34.30;31.96;42.73;;
66888;Laerm;53798;51.680;5.976;2022-08-07T02:15:37;60.65;32.65;77.44;;
66888;Laerm;53798;51.680;5.976;2022-08-07T02:18:11;45.27;32.69;62.72;;
66888;Laerm;53798;51.680;5.976;2022-08-07T02:20:42;63.66;32.14;83.65;;
66888;Laerm;53798;51.680;5.976;2022-08-07T02:23:23;35.90;32.36;44.78;;
66888;Laerm;53798;51.680;5.976;2022-08-07T02:25:53;37.73;34.19;51.68;;
66888;Laerm;53798;51.680;5.976;2022-08-07T02:28:43;37.98;32.57;56.85;;
66888;Laerm;53798;51.680;5.976;2022-08-07T02:31:16;35.49;32.52;40.47;;
66888;Laerm;53798;51.680;5.976;2022-08-07T02:33:56;35.32;32.82;45.81;;
66888;Laerm;53798;51.680;5.976;2022-08-07T02:36:32;37.28;33.48;46.19;;
66888;Laerm;53798;51.680;5.976;2022-08-07T02:39:09;35.98;33.31;39.96;;
66888;Laerm;53798;51.680;5.976;2022-08-07T02:42:00;36.64;33.89;42.18;;
66888;Laerm;53798;51.680;5.976;2022-08-07T02:44:30;35.50;32.99;39.07;;
66888;Laerm;53798;51.680;5.976;2022-08-07T02:47:05;36.04;32.81;42.46;;
66888;Laerm;53798;51.680;5.976;2022-08-07T02:49:46;35.00;31.99;38.73;;
66888;Laerm;53798;51.680;5.976;2022-08-07T02:52:32;35.08;31.93;40.87;;
66888;Laerm;53798;51.680;5.976;2022-08-07T02:55:09;34.79;32.09;41.29;;
66888;Laerm;53798;51.680;5.976;2022-08-07T02:58:02;35.16;31.98;40.26;;
66888;Laerm;53798;51.680;5.976;2022-08-07T03:00:33;36.24;32.75;47.03;;
66888;Laerm;53798;51.680;5.976;2022-08-07T03:03:05;60.36;33.70;78.92;;
66888;Laerm;53798;51.680;5.976;2022-08-07T03:05:48;56.18;32.52;76.79;;
66888;Laerm;53798;51.680;5.976;2022-08-07T03:08:20;52.78;33.76;70.93;;
66888;Laerm;53798;51.680;5.976;2022-08-07T03:10:56;35.98;33.15;47.33;;
66888;Laerm;53798;51.680;5.976;2022-08-07T03:13:32;37.56;33.29;52.23;;
66888;Laerm;53798;51.680;5.976;2022-08-07T03:16:17;37.01;33.79;41.31;;
66888;Laerm;53798;51.680;5.976;2022-08-07T03:18:55;37.43;33.99;48.94;;
66888;Laerm;53798;51.680;5.976;2022-08-07T03:21:23;62.29;35.30;77.92;;
66888;Laerm;53798;51.680;5.976;2022-08-07T03:23:57;36.92;32.86;48.84;;
66888;Laerm;53798;51.680;5.976;2022-08-07T03:26:48;56.62;33.31;75.18;;
66888;Laerm;53798;51.680;5.976;2022-08-07T03:29:36;38.38;34.46;44.28;;
66888;Laerm;53798;51.680;5.976;2022-08-07T03:32:15;38.79;34.46;48.71;;
66888;Laerm;53798;51.680;5.976;2022-08-07T03:34:47;54.71;33.96;71.73;;
66888;Laerm;53798;51.680;5.976;2022-08-07T03:37:37;41.24;32.91;58.44;;
66888;Laerm;53798;51.680;5.976;2022-08-07T03:40:21;60.60;34.89;77.35;;
66888;Laerm;53798;51.680;5.976;2022-08-07T03:42:53;54.88;33.53;72.14;;
66888;Laerm;53798;51.680;5.976;2022-08-07T03:45:24;60.00;33.05;75.59;;
66888;Laerm;53798;51.680;5.976;2022-08-07T03:48:02;65.76;35.29;83.51;;
66888;Laerm;53798;51.680;5.976;2022-08-07T03:50:37;64.46;34.28;82.23;;
66888;Laerm;53798;51.680;5.976;2022-08-07T03:53:05;42.47;34.12;55.42;;
66888;Laerm;53798;51.680;5.976;2022-08-07T03:55:37;53.00;33.99;70.41;;
66888;Laerm;53798;51.680;5.976;2022-08-07T03:58:25;54.50;33.64;71.63;;
66888;Laerm;53798;51.680;5.976;2022-08-07T04:01:14;57.84;33.52;77.00;;
66888;Laerm;53798;51.680;5.976;2022-08-07T04:03:45;61.83;33.67;82.23;;
66888;Laerm;53798;51.680;5.976;2022-08-07T04:06:22;64.93;33.77;83.41;;
66888;Laerm;53798;51.680;5.976;2022-08-07T04:09:06;64.48;34.41;82.02;;
66888;Laerm;53798;51.680;5.976;2022-08-07T04:11:45;63.18;35.70;76.94;;
66888;Laerm;53798;51.680;5.976;2022-08-07T04:14:35;43.29;34.18;60.54;;
66888;Laerm;53798;51.680;5.976;2022-08-07T04:17:16;61.69;34.70;78.71;;
66888;Laerm;53798;51.680;5.976;2022-08-07T04:19:50;64.43;34.92;80.43;;
66888;Laerm;53798;51.680;5.976;2022-08-07T04:22:24;39.46;34.15;53.78;;
66888;Laerm;53798;51.680;5.976;2022-08-07T04:24:57;60.98;34.49;79.20;;
66888;Laerm;53798;51.680;5.976;2022-08-07T04:27:28;38.41;34.72;50.00;;
66888;Laerm;53798;51.680;5.976;2022-08-07T04:30:06;55.89;33.76;74.16;;
66888;Laerm;53798;51.680;5.976;2022-08-07T04:32:53;40.46;34.10;53.61;;
66888;Laerm;53798;51.680;5.976;2022-08-07T04:35:26;39.21;33.32;55.04;;
66888;Laerm;53798;51.680;5.976;2022-08-07T04:38:07;39.90;34.35;53.86;;
66888;Laerm;53798;51.680;5.976;2022-08-07T04:40:42;54.58;34.07;70.84;;
66888;Laerm;53798;51.680;5.976;2022-08-07T04:43:36;39.13;34.66;57.62;;
66888;Laerm;53798;51.680;5.976;2022-08-07T04:46:33;61.85;35.09;77.30;;
66888;Laerm;53798;51.680;5.976;2022-08-07T04:52:35;38.87;35.10;53.45;;
66888;Laerm;53798;51.680;5.976;2022-08-07T04:55:36;60.55;35.14;78.74;;
66888;Laerm;53798;51.680;5.976;2022-08-07T04:58:43;56.43;34.43;75.09;;
66888;Laerm;53798;51.680;5.976;2022-08-07T05:02:04;58.22;33.90;78.83;;
66888;Laerm;53798;51.680;5.976;2022-08-07T05:05:11;38.98;34.16;51.84;;
66888;Laerm;53798;51.680;5.976;2022-08-07T05:08:14;55.94;34.29;74.86;;
66888;Laerm;53798;51.680;5.976;2022-08-07T05:11:13;38.24;34.15;51.26;;
66888;Laerm;53798;51.680;5.976;2022-08-07T05:14:00;53.05;34.13;71.24;;
66888;Laerm;53798;51.680;5.976;2022-08-07T05:16:53;43.73;34.88;56.37;;
66888;Laerm;53798;51.680;5.976;2022-08-07T05:19:33;55.34;34.54;74.10;;
66888;Laerm;53798;51.680;5.976;2022-08-07T05:22:15;58.93;35.22;78.39;;
66888;Laerm;53798;51.680;5.976;2022-08-07T05:24:58;45.10;34.54;62.60;;
66888;Laerm;53798;51.680;5.976;2022-08-07T05:27:29;59.85;34.15;79.76;;
66888;Laerm;53798;51.680;5.976;2022-08-07T05:30:19;50.99;33.68;72.19;;
66888;Laerm;53798;51.680;5.976;2022-08-07T05:33:01;39.45;34.32;61.15;;
66888;Laerm;53798;51.680;5.976;2022-08-07T05:35:33;39.16;34.35;45.57;;
66888;Laerm;53798;51.680;5.976;2022-08-07T05:38:10;43.97;34.31;62.69;;
66888;Laerm;53798;51.680;5.976;2022-08-07T05:41:01;45.91;34.37;59.89;;
66888;Laerm;53798;51.680;5.976;2022-08-07T05:43:44;43.40;33.87;60.69;;
66888;Laerm;53798;51.680;5.976;2022-08-07T05:46:34;56.73;33.70;76.88;;
66888;Laerm;53798;51.680;5.976;2022-08-07T05:49:06;64.46;35.24;82.16;;
66888;Laerm;53798;51.680;5.976;2022-08-07T05:51:44;37.67;33.35;50.94;;
66888;Laerm;53798;51.680;5.976;2022-08-07T05:54:15;54.22;33.71;76.07;;
66888;Laerm;53798;51.680;5.976;2022-08-07T05:57:05;51.49;34.26;74.18;;
66888;Laerm;53798;51.680;5.976;2022-08-07T05:59:41;50.79;34.44;66.18;;
66888;Laerm;53798;51.680;5.976;2022-08-07T06:02:29;51.34;34.40;71.98;;
66888;Laerm;53798;51.680;5.976;2022-08-07T06:05:09;62.08;34.75;78.73;;
66888;Laerm;53798;51.680;5.976;2022-08-07T06:07:44;46.14;33.82;60.11;;
66888;Laerm;53798;51.680;5.976;2022-08-07T06:10:36;58.98;33.59;79.47;;
66888;Laerm;53798;51.680;5.976;2022-08-07T06:13:05;44.03;33.42;59.75;;
66888;Laerm;53798;51.680;5.976;2022-08-07T06:15:41;52.35;33.96;69.09;;
66888;Laerm;53798;51.680;5.976;2022-08-07T06:18:16;48.27;33.78;68.67;;
66888;Laerm;53798;51.680;5.976;2022-08-07T06:20:45;63.71;34.75;81.82;;
66888;Laerm;53798;51.680;5.976;2022-08-07T06:23:16;60.71;34.20;78.59;;
66888;Laerm;53798;51.680;5.976;2022-08-07T06:26:03;55.99;35.43;75.54;;
66888;Laerm;53798;51.680;5.976;2022-08-07T06:28:33;63.44;34.38;77.58;;
66888;Laerm;53798;51.680;5.976;2022-08-07T06:31:00;43.84;33.59;60.83;;
66888;Laerm;53798;51.680;5.976;2022-08-07T06:33:30;56.18;33.55;71.82;;
66888;Laerm;53798;51.680;5.976;2022-08-07T06:35:59;63.84;34.24;78.52;;
66888;Laerm;53798;51.680;5.976;2022-08-07T06:38:53;62.18;33.75;80.19;;
66888;Laerm;53798;51.680;5.976;2022-08-07T06:41:47;40.34;33.39;64.75;;
66888;Laerm;53798;51.680;5.976;2022-08-07T06:45:02;56.53;33.64;75.32;;
66888;Laerm;53798;51.680;5.976;2022-08-07T06:47:31;57.43;33.76;77.79;;
66888;Laerm;53798;51.680;5.976;2022-08-07T06:50:16;54.96;34.24;76.00;;
66888;Laerm;53798;51.680;5.976;2022-08-07T06:52:52;64.22;34.92;78.94;;
66888;Laerm;53798;51.680;5.976;2022-08-07T06:55:27;54.22;34.04;71.08;;
66888;Laerm;53798;51.680;5.976;2022-08-07T06:58:15;59.37;34.89;77.51;;
66888;Laerm;53798;51.680;5.976;2022-08-07T07:00:57;55.76;33.95;74.88;;
66888;Laerm;53798;51.680;5.976;2022-08-07T07:03:26;62.41;33.00;79.68;;
66888;Laerm;53798;51.680;5.976;2022-08-07T07:06:14;61.97;33.39;77.09;;
66888;Laerm;53798;51.680;5.976;2022-08-07T07:08:52;61.93;32.69;80.09;;
66888;Laerm;53798;51.680;5.976;2022-08-07T07:11:20;60.28;33.80;76.24;;
66888;Laerm;53798;51.680;5.976;2022-08-07T07:14:09;63.38;34.44;78.16;;
66888;Laerm;53798;51.680;5.976;2022-08-07T07:16:42;39.04;33.09;52.13;;
66888;Laerm;53798;51.680;5.976;2022-08-07T07:19:29;62.59;33.16;76.82;;
66888;Laerm;53798;51.680;5.976;2022-08-07T07:22:18;61.78;34.89;76.60;;
66888;Laerm;53798;51.680;5.976;2022-08-07T07:25:09;59.82;32.74;77.96;;
66888;Laerm;53798;51.680;5.976;2022-08-07T07:28:04;67.06;34.23;84.78;;
66888;Laerm;53798;51.680;5.976;2022-08-07T07:31:01;62.65;34.52;76.68;;
66888;Laerm;53798;51.680;5.976;2022-08-07T07:33:32;60.78;34.41;79.26;;
66888;Laerm;53798;51.680;5.976;2022-08-07T07:36:02;60.06;33.15;76.58;;
66888;Laerm;53798;51.680;5.976;2022-08-07T07:38:40;54.91;33.63;72.59;;
66888;Laerm;53798;51.680;5.976;2022-08-07T07:41:14;59.41;33.33;75.13;;
66888;Laerm;53798;51.680;5.976;2022-08-07T07:43:45;65.74;34.24;79.85;;
66888;Laerm;53798;51.680;5.976;2022-08-07T07:46:36;69.90;34.44;83.98;;
66888;Laerm;53798;51.680;5.976;2022-08-07T07:49:27;63.07;33.78;78.81;;
66888;Laerm;53798;51.680;5.976;2022-08-07T07:52:16;61.12;34.50;78.05;;
66888;Laerm;53798;51.680;5.976;2022-08-07T07:54:45;61.01;33.13;78.00;;
66888;Laerm;53798;51.680;5.976;2022-08-07T07:57:21;63.63;33.60;81.33;;
66888;Laerm;53798;51.680;5.976;2022-08-07T08:00:12;58.09;34.04;75.72;;
66888;Laerm;53798;51.680;5.976;2022-08-07T08:03:01;65.62;34.08;83.86;;
66888;Laerm;53798;51.680;5.976;2022-08-07T08:05:39;59.26;36.48;74.62;;
66888;Laerm;53798;51.680;5.976;2022-08-07T08:08:23;57.15;33.65;74.47;;
66888;Laerm;53798;51.680;5.976;2022-08-07T08:11:04;56.12;36.03;74.29;;
66888;Laerm;53798;51.680;5.976;2022-08-07T08:13:42;64.06;35.66;80.17;;
66888;Laerm;53798;51.680;5.976;2022-08-07T08:16:35;65.09;34.92;77.68;;
66888;Laerm;53798;51.680;5.976;2022-08-07T08:19:09;61.93;33.60;80.15;;
66888;Laerm;53798;51.680;5.976;2022-08-07T08:21:57;63.65;35.43;77.52;;
66888;Laerm;53798;51.680;5.976;2022-08-07T08:24:48;67.48;33.88;83.38;;
66888;Laerm;53798;51.680;5.976;2022-08-07T08:27:59;59.73;32.98;78.44;;
66888;Laerm;53798;51.680;5.976;2022-08-07T08:30:33;64.75;35.34;78.17;;
66888;Laerm;53798;51.680;5.976;2022-08-07T08:33:12;62.68;36.12;77.15;;
66888;Laerm;53798;51.680;5.976;2022-08-07T08:35:51;63.46;34.50;80.29;;
66888;Laerm;53798;51.680;5.976;2022-08-07T08:38:27;63.70;33.92;75.55;;
66888;Laerm;53798;51.680;5.976;2022-08-07T08:41:24;64.23;33.97;82.20;;
66888;Laerm;53798;51.680;5.976;2022-08-07T08:47:01;70.78;35.06;86.01;;
66888;Laerm;53798;51.680;5.976;2022-08-07T08:50:02;64.21;33.46;82.92;;
66888;Laerm;53798;51.680;5.976;2022-08-07T08:55:43;62.38;34.07;81.03;;
66888;Laerm;53798;51.680;5.976;2022-08-07T08:58:46;60.06;33.96;76.89;;
66888;Laerm;53798;51.680;5.976;2022-08-07T09:01:27;64.14;37.69;79.04;;
66888;Laerm;53798;51.680;5.976;2022-08-07T09:04:21;61.70;36.11;75.63;;
66888;Laerm;53798;51.680;5.976;2022-08-07T09:07:17;63.76;35.46;78.61;;
66888;Laerm;53798;51.680;5.976;2022-08-07T09:10:00;63.27;36.83;79.19;;
66888;Laerm;53798;51.680;5.976;2022-08-07T09:15:31;63.89;35.51;79.24;;
66888;Laerm;53798;51.680;5.976;2022-08-07T09:30:57;64.82;36.58;78.38;;
66888;Laerm;53798;51.680;5.976;2022-08-07T09:34:15;63.89;33.86;79.50;;
66888;Laerm;53798;51.680;5.976;2022-08-07T09:37:12;66.88;33.92;86.90;;
66888;Laerm;53798;51.680;5.976;2022-08-07T09:40:00;63.58;35.17;77.62;;
66888;Laerm;53798;51.680;5.976;2022-08-07T09:42:59;66.37;37.88;79.83;;
66888;Laerm;53798;51.680;5.976;2022-08-07T09:45:49;61.78;36.67;77.31;;
66888;Laerm;53798;51.680;5.976;2022-08-07T09:49:04;66.10;34.54;83.84;;
66888;Laerm;53798;51.680;5.976;2022-08-07T09:52:21;63.66;34.47;80.77;;
66888;Laerm;53798;51.680;5.976;2022-08-07T10:04:32;62.24;34.37;77.75;;
66888;Laerm;53798;51.680;5.976;2022-08-07T10:08:03;61.34;33.86;80.44;;
66888;Laerm;53798;51.680;5.976;2022-08-07T10:28:06;66.97;35.09;78.92;;
66888;Laerm;53798;51.680;5.976;2022-08-07T10:31:02;60.62;33.19;74.29;;
66888;Laerm;53798;51.680;5.976;2022-08-07T10:40:00;69.71;38.09;88.26;;
66888;Laerm;53798;51.680;5.976;2022-08-07T10:42:53;64.22;33.63;76.93;;
66888;Laerm;53798;51.680;5.976;2022-08-07T10:45:38;61.31;35.10;74.33;;
66888;Laerm;53798;51.680;5.976;2022-08-07T10:52:05;56.87;35.62;75.36;;
66888;Laerm;53798;51.680;5.976;2022-08-07T10:54:48;62.86;34.70;80.80;;
66888;Laerm;53798;51.680;5.976;2022-08-07T11:00:28;64.60;38.75;76.83;;
66888;Laerm;53798;51.680;5.976;2022-08-07T11:03:22;66.98;38.13;81.95;;
66888;Laerm;53798;51.680;5.976;2022-08-07T11:09:14;65.65;33.27;82.93;;
66888;Laerm;53798;51.680;5.976;2022-08-07T11:12:35;63.64;37.32;77.66;;
66888;Laerm;53798;51.680;5.976;2022-08-07T11:15:17;64.73;34.55;81.25;;
66888;Laerm;53798;51.680;5.976;2022-08-07T11:18:03;68.45;40.28;84.14;;
66888;Laerm;53798;51.680;5.976;2022-08-07T11:20:58;66.81;34.57;83.71;;
66888;Laerm;53798;51.680;5.976;2022-08-07T11:24:14;62.26;35.22;79.57;;
66888;Laerm;53798;51.680;5.976;2022-08-07T11:27:06;68.69;35.94;82.72;;
66888;Laerm;53798;51.680;5.976;2022-08-07T11:30:00;65.92;37.20;81.92;;
66888;Laerm;53798;51.680;5.976;2022-08-07T11:33:01;65.03;36.24;82.84;;
66888;Laerm;53798;51.680;5.976;2022-08-07T11:36:15;65.11;40.57;81.39;;
66888;Laerm;53798;51.680;5.976;2022-08-07T11:57:42;66.47;35.04;77.59;;
66888;Laerm;53798;51.680;5.976;2022-08-07T12:07:07;65.78;35.46;78.20;;
66888;Laerm;53798;51.680;5.976;2022-08-07T12:10:01;65.42;38.72;78.06;;
66888;Laerm;53798;51.680;5.976;2022-08-07T12:12:42;63.12;34.80;79.65;;
66888;Laerm;53798;51.680;5.976;2022-08-07T12:15:23;66.07;38.54;79.68;;
66888;Laerm;53798;51.680;5.976;2022-08-07T12:18:28;68.36;43.55;80.43;;
66888;Laerm;53798;51.680;5.976;2022-08-07T12:21:25;65.41;35.71;80.52;;
66888;Laerm;53798;51.680;5.976;2022-08-07T12:24:43;64.67;35.91;79.49;;
66888;Laerm;53798;51.680;5.976;2022-08-07T12:27:41;65.17;39.68;81.03;;
66888;Laerm;53798;51.680;5.976;2022-08-07T12:30:38;66.66;37.08;78.16;;
66888;Laerm;53798;51.680;5.976;2022-08-07T12:33:18;65.02;35.17;79.63;;
66888;Laerm;53798;51.680;5.976;2022-08-07T12:35:58;61.60;35.43;75.95;;
66888;Laerm;53798;51.680;5.976;2022-08-07T12:38:29;66.25;45.69;78.29;;
66888;Laerm;53798;51.680;5.976;2022-08-07T12:41:11;66.30;38.39;78.66;;
66888;Laerm;53798;51.680;5.976;2022-08-07T12:43:43;63.75;39.03;78.52;;
66888;Laerm;53798;51.680;5.976;2022-08-07T12:47:20;65.97;36.43;82.92;;
66888;Laerm;53798;51.680;5.976;2022-08-07T12:50:03;66.08;38.62;80.40;;
66888;Laerm;53798;51.680;5.976;2022-08-07T12:53:06;64.31;35.89;78.73;;
66888;Laerm;53798;51.680;5.976;2022-08-07T12:59:02;64.10;34.68;78.31;;
66888;Laerm;53798;51.680;5.976;2022-08-07T13:05:15;66.25;44.01;80.50;;
66888;Laerm;53798;51.680;5.976;2022-08-07T13:17:48;68.21;36.32;85.36;;
66888;Laerm;53798;51.680;5.976;2022-08-07T13:20:42;62.64;37.81;79.03;;
66888;Laerm;53798;51.680;5.976;2022-08-07T13:23:34;64.61;34.55;79.26;;
66888;Laerm;53798;51.680;5.976;2022-08-07T13:26:41;65.71;36.33;79.59;;
66888;Laerm;53798;51.680;5.976;2022-08-07T13:30:06;63.82;36.72;78.23;;
66888;Laerm;53798;51.680;5.976;2022-08-07T13:33:10;63.13;33.22;79.59;;
66888;Laerm;53798;51.680;5.976;2022-08-07T13:36:26;64.04;35.03;81.40;;
66888;Laerm;53798;51.680;5.976;2022-08-07T13:39:06;67.97;37.11;84.18;;
66888;Laerm;53798;51.680;5.976;2022-08-07T13:41:55;63.31;36.61;81.61;;
66888;Laerm;53798;51.680;5.976;2022-08-07T13:44:31;67.39;37.50;83.97;;
66888;Laerm;53798;51.680;5.976;2022-08-07T13:47:06;61.00;34.18;75.83;;
66888;Laerm;53798;51.680;5.976;2022-08-07T13:49:46;68.42;37.85;80.67;;
66888;Laerm;53798;51.680;5.976;2022-08-07T13:52:39;64.14;36.71;80.86;;
66888;Laerm;53798;51.680;5.976;2022-08-07T13:55:20;65.98;35.15;84.99;;
66888;Laerm;53798;51.680;5.976;2022-08-07T13:58:05;63.35;34.97;79.44;;
66888;Laerm;53798;51.680;5.976;2022-08-07T14:01:00;65.77;36.71;82.78;;
66888;Laerm;53798;51.680;5.976;2022-08-07T14:03:39;61.96;33.91;77.70;;
66888;Laerm;53798;51.680;5.976;2022-08-07T14:06:34;63.95;35.03;83.03;;
66888;Laerm;53798;51.680;5.976;2022-08-07T14:09:04;57.32;32.97;73.10;;
66888;Laerm;53798;51.680;5.976;2022-08-07T14:11:42;63.42;35.43;75.33;;
66888;Laerm;53798;51.680;5.976;2022-08-07T14:14:40;65.21;35.28;79.34;;
66888;Laerm;53798;51.680;5.976;2022-08-07T14:17:11;64.69;37.49;77.67;;
66888;Laerm;53798;51.680;5.976;2022-08-07T14:20:20;63.81;38.52;78.13;;
66888;Laerm;53798;51.680;5.976;2022-08-07T14:23:19;63.82;37.24;79.66;;
66888;Laerm;53798;51.680;5.976;2022-08-07T14:26:11;65.73;35.54;83.51;;
66888;Laerm;53798;51.680;5.976;2022-08-07T14:29:00;64.33;37.87;78.16;;
66888;Laerm;53798;51.680;5.976;2022-08-07T14:31:49;62.31;36.54;78.65;;
66888;Laerm;53798;51.680;5.976;2022-08-07T14:34:26;63.18;34.17;79.04;;
66888;Laerm;53798;51.680;5.976;2022-08-07T14:37:03;64.47;36.13;79.22;;
66888;Laerm;53798;51.680;5.976;2022-08-07T14:39:47;66.24;34.87;86.05;;
66888;Laerm;53798;51.680;5.976;2022-08-07T14:42:36;66.47;42.09;81.22;;
66888;Laerm;53798;51.680;5.976;2022-08-07T14:45:33;65.90;35.18;89.34;;
66888;Laerm;53798;51.680;5.976;2022-08-07T14:48:19;62.54;34.88;77.60;;
66888;Laerm;53798;51.680;5.976;2022-08-07T14:51:05;59.02;35.10;75.76;;
66888;Laerm;53798;51.680;5.976;2022-08-07T14:53:58;64.82;37.34;78.63;;
66888;Laerm;53798;51.680;5.976;2022-08-07T14:56:49;63.06;34.23;91.92;;
66888;Laerm;53798;51.680;5.976;2022-08-07T14:59:21;63.49;34.66;79.08;;
66888;Laerm;53798;51.680;5.976;2022-08-07T15:02:17;65.03;38.04;76.97;;
66888;Laerm;53798;51.680;5.976;2022-08-07T15:05:02;64.37;37.96;77.66;;
66888;Laerm;53798;51.680;5.976;2022-08-07T15:07:31;64.35;38.39;81.96;;
66888;Laerm;53798;51.680;5.976;2022-08-07T15:10:23;63.65;35.11;76.06;;
66888;Laerm;53798;51.680;5.976;2022-08-07T15:13:21;59.33;34.48;74.83;;
66888;Laerm;53798;51.680;5.976;2022-08-07T15:16:01;65.57;34.17;82.56;;
66888;Laerm;53798;51.680;5.976;2022-08-07T15:18:46;66.13;37.72;76.74;;
66888;Laerm;53798;51.680;5.976;2022-08-07T15:21:24;65.23;38.22;82.25;;
66888;Laerm;53798;51.680;5.976;2022-08-07T15:24:24;65.43;37.42;78.88;;
66888;Laerm;53798;51.680;5.976;2022-08-07T15:27:21;62.02;34.58;76.04;;
66888;Laerm;53798;51.680;5.976;2022-08-07T15:29:58;62.92;36.83;76.97;;
66888;Laerm;53798;51.680;5.976;2022-08-07T15:32:48;65.02;35.15;77.46;;
66888;Laerm;53798;51.680;5.976;2022-08-07T15:35:36;63.02;35.74;78.44;;
66888;Laerm;53798;51.680;5.976;2022-08-07T15:38:29;63.28;33.63;78.30;;
66888;Laerm;53798;51.680;5.976;2022-08-07T15:41:22;61.62;35.28;78.42;;
66888;Laerm;53798;51.680;5.976;2022-08-07T15:44:13;62.68;35.81;77.87;;
66888;Laerm;53798;51.680;5.976;2022-08-07T15:46:45;66.13;36.81;81.73;;
66888;Laerm;53798;51.680;5.976;2022-08-07T15:49:38;53.40;33.18;71.57;;
66888;Laerm;53798;51.680;5.976;2022-08-07T15:52:29;64.68;33.69;82.94;;
66888;Laerm;53798;51.680;5.976;2022-08-07T15:55:03;60.40;36.49;79.53;;
66888;Laerm;53798;51.680;5.976;2022-08-07T15:57:40;60.45;36.40;75.23;;
66888;Laerm;53798;51.680;5.976;2022-08-07T16:00:19;62.48;37.44;78.61;;
66888;Laerm;53798;51.680;5.976;2022-08-07T16:03:21;63.43;36.74;77.43;;
66888;Laerm;53798;51.680;5.976;2022-08-07T16:06:11;60.99;33.74;76.75;;
66888;Laerm;53798;51.680;5.976;2022-08-07T16:08:41;63.21;33.71;82.10;;
66888;Laerm;53798;51.680;5.976;2022-08-07T16:11:51;64.40;34.19;77.93;;
66888;Laerm;53798;51.680;5.976;2022-08-07T16:21:39;63.41;33.89;79.46;;
66888;Laerm;53798;51.680;5.976;2022-08-07T16:24:55;66.95;34.34;85.30;;
66888;Laerm;53798;51.680;5.976;2022-08-07T16:27:39;62.82;36.94;78.88;;
66888;Laerm;53798;51.680;5.976;2022-08-07T16:30:14;60.33;36.05;75.17;;
66888;Laerm;53798;51.680;5.976;2022-08-07T16:33:07;64.96;35.64;81.82;;
66888;Laerm;53798;51.680;5.976;2022-08-07T16:43:27;63.05;35.87;77.59;;
66888;Laerm;53798;51.680;5.976;2022-08-07T16:50:20;63.66;35.22;77.75;;
66888;Laerm;53798;51.680;5.976;2022-08-07T16:53:42;63.26;35.77;77.18;;
66888;Laerm;53798;51.680;5.976;2022-08-07T17:02:37;64.47;36.92;80.80;;
66888;Laerm;53798;51.680;5.976;2022-08-07T17:06:10;60.77;35.36;76.03;;
66888;Laerm;53798;51.680;5.976;2022-08-07T17:12:23;57.04;36.17;72.29;;
66888;Laerm;53798;51.680;5.976;2022-08-07T17:15:18;62.34;36.23;78.74;;
66888;Laerm;53798;51.680;5.976;2022-08-07T17:18:27;60.51;35.76;76.34;;
66888;Laerm;53798;51.680;5.976;2022-08-07T17:20:56;63.17;37.04;78.94;;
66888;Laerm;53798;51.680;5.976;2022-08-07T17:26:16;59.46;35.75;73.92;;
66888;Laerm;53798;51.680;5.976;2022-08-07T17:32:42;64.03;35.88;77.44;;
66888;Laerm;53798;51.680;5.976;2022-08-07T17:35:19;56.84;36.94;75.33;;
66888;Laerm;53798;51.680;5.976;2022-08-07T17:38:18;62.40;37.35;79.14;;
66888;Laerm;53798;51.680;5.976;2022-08-07T17:44:05;61.49;37.17;75.51;;
66888;Laerm;53798;51.680;5.976;2022-08-07T17:47:02;59.95;36.07;77.35;;
66888;Laerm;53798;51.680;5.976;2022-08-07T17:49:53;60.16;35.58;76.66;;